createdAt,value
2019-05-18T00:00:18.314Z,95.6039
2019-05-18T00:01:21.273Z,95.5718
2019-05-18T00:02:24.364Z,95.2926
2019-05-18T00:03:27.296Z,95.5398
2019-05-18T00:04:30.372Z,95.5627
2019-05-18T00:05:33.257Z,95.6924
2019-05-18T00:06:36.330Z,95.6634
2019-05-18T00:07:39.308Z,95.6130
2019-05-18T00:08:41.361Z,95.5764
2019-05-18T00:09:44.295Z,94.3465
2019-05-18T00:10:47.287Z,94.3236
2019-05-18T00:11:50.334Z,94.5052
2019-05-18T00:12:53.332Z,93.9849
2019-05-18T00:13:56.296Z,93.8735
2019-05-18T00:14:59.269Z,93.5271
2019-05-18T00:16:02.353Z,93.4707
2019-05-18T00:17:07.482Z,93.3211
2019-05-18T00:18:12.311Z,93.2326
2019-05-18T00:19:15.287Z,93.0556
2019-05-18T00:20:18.272Z,93.0694
2019-05-18T00:21:21.342Z,93.1517
2019-05-18T00:22:24.355Z,93.1228
2019-05-18T00:23:27.290Z,92.7947
2019-05-18T00:24:30.289Z,92.7993
2019-05-18T00:25:33.313Z,92.2637
2019-05-18T00:26:36.267Z,91.6625
2019-05-18T00:27:39.344Z,91.8105
2019-05-18T00:28:42.302Z,91.6548
2019-05-18T00:29:47.293Z,91.9142
2019-05-18T00:30:50.324Z,91.0872
2019-05-18T00:31:53.285Z,90.7423
2019-05-18T00:32:56.344Z,90.4463
2019-05-18T00:33:59.294Z,90.9545
2019-05-18T00:35:02.311Z,91.0079
2019-05-18T00:36:05.291Z,91.1971
2019-05-18T00:37:08.382Z,91.3481
2019-05-18T00:38:11.292Z,91.7357
2019-05-18T00:39:14.268Z,91.9615
2019-05-18T00:40:17.292Z,91.9066
2019-05-18T00:41:20.283Z,92.4727
2019-05-18T00:42:22.341Z,92.1340
2019-05-18T00:43:25.264Z,91.7281
2019-05-18T00:44:28.329Z,91.7586
2019-05-18T00:45:31.292Z,91.0872
2019-05-18T00:46:34.339Z,91.0719
2019-05-18T00:47:41.216Z,90.6889
2019-05-18T00:48:45.336Z,91.2413
2019-05-18T00:49:48.347Z,91.1696
2019-05-18T00:50:51.280Z,90.5638
2019-05-18T00:51:54.306Z,90.3136
2019-05-18T00:52:57.318Z,90.5379
2019-05-18T00:54:00.350Z,90.5608
2019-05-18T00:55:03.323Z,90.5135
2019-05-18T00:56:06.362Z,90.6416
2019-05-18T00:57:09.303Z,90.7027
2019-05-18T00:58:12.351Z,90.5150
2019-05-18T00:59:16.224Z,90.7530
2019-05-18T01:00:19.294Z,90.8446
2019-05-18T01:01:22.313Z,90.6798
2019-05-18T01:02:25.315Z,90.9850
2019-05-18T01:03:28.323Z,90.3670
2019-05-18T01:04:31.301Z,90.6279
2019-05-18T01:05:37.717Z,90.7561
2019-05-18T01:06:41.287Z,90.8019
2019-05-18T01:07:44.269Z,90.9209
2019-05-18T01:08:47.345Z,91.2795
2019-05-18T01:09:50.353Z,90.9346
2019-05-18T01:10:53.297Z,91.2429
2019-05-18T01:11:56.296Z,91.2322
2019-05-18T01:12:59.300Z,91.5297
2019-05-18T01:14:02.346Z,91.7739
2019-05-18T01:15:05.278Z,91.5541
2019-05-18T01:16:08.264Z,91.6915
2019-05-18T01:17:11.287Z,91.8654
2019-05-18T01:18:14.279Z,91.6716
2019-05-18T01:19:17.330Z,91.5389
2019-05-18T01:20:20.315Z,91.6350
2019-05-18T01:21:23.277Z,91.9097
2019-05-18T01:22:26.301Z,91.7128
2019-05-18T01:23:29.303Z,91.5267
2019-05-18T01:24:32.331Z,91.4473
2019-05-18T01:25:35.299Z,91.5999
2019-05-18T01:26:38.310Z,91.3298
2019-05-18T01:27:41.281Z,91.2551
2019-05-18T01:28:44.325Z,91.2429
2019-05-18T01:29:47.343Z,91.4809
2019-05-18T01:30:50.331Z,91.0765
2019-05-18T01:31:53.296Z,91.2612
2019-05-18T01:32:56.303Z,91.7784
2019-05-18T01:33:59.291Z,92.3720
2019-05-18T01:35:02.361Z,92.3033
2019-05-18T01:36:05.284Z,92.2942
2019-05-18T01:37:08.297Z,92.1660
2019-05-18T01:38:11.299Z,92.1675
2019-05-18T01:39:14.317Z,91.9921
2019-05-18T01:40:17.333Z,91.8334
2019-05-18T01:41:20.318Z,91.4534
2019-05-18T01:42:23.288Z,91.2016
2019-05-18T01:43:26.307Z,90.9941
2019-05-18T01:44:29.298Z,91.1330
2019-05-18T01:45:32.302Z,91.3054
2019-05-18T01:46:35.326Z,91.4260
2019-05-18T01:47:38.301Z,91.4580
2019-05-18T01:48:40.345Z,91.7128
2019-05-18T01:49:43.393Z,92.2393
2019-05-18T01:50:46.290Z,92.2408
2019-05-18T01:51:49.302Z,92.2179
2019-05-18T01:52:52.311Z,91.6945
2019-05-18T01:53:55.291Z,91.8837
2019-05-18T01:54:58.310Z,92.1202
2019-05-18T01:56:01.321Z,92.3003
2019-05-18T01:57:04.284Z,92.0943
2019-05-18T01:58:07.346Z,91.5724
2019-05-18T01:59:10.317Z,91.4107
2019-05-18T02:00:13.315Z,91.4305
2019-05-18T02:01:16.312Z,91.6823
2019-05-18T02:02:19.296Z,92.0607
2019-05-18T02:03:24.316Z,92.4224
2019-05-18T02:04:29.264Z,92.3323
2019-05-18T02:05:32.358Z,92.4102
2019-05-18T02:06:35.270Z,92.5063
2019-05-18T02:07:38.281Z,92.6650
2019-05-18T02:08:41.291Z,92.6574
2019-05-18T02:09:44.302Z,92.9503
2019-05-18T02:10:47.322Z,92.8588
2019-05-18T02:11:50.287Z,92.8206
2019-05-18T02:12:53.291Z,92.8801
2019-05-18T02:13:56.265Z,92.6925
2019-05-18T02:14:59.278Z,92.7626
2019-05-18T02:16:01.353Z,92.7855
2019-05-18T02:17:04.268Z,92.6970
2019-05-18T02:18:07.284Z,92.1721
2019-05-18T02:19:09.290Z,92.3919
2019-05-18T02:20:12.307Z,92.6421
2019-05-18T02:21:15.306Z,93.0953
2019-05-18T02:22:17.310Z,93.4890
2019-05-18T02:23:20.251Z,93.7377
2019-05-18T02:24:23.274Z,93.3806
2019-05-18T02:25:26.288Z,93.5302
2019-05-18T02:26:29.300Z,93.6126
2019-05-18T02:27:32.329Z,93.8247
2019-05-18T02:28:35.282Z,93.8277
2019-05-18T02:29:38.322Z,93.7957
2019-05-18T02:30:41.289Z,93.8369
2019-05-18T02:31:44.350Z,94.0658
2019-05-18T02:32:47.290Z,93.4722
2019-05-18T02:33:50.291Z,93.5027
2019-05-18T02:34:53.323Z,93.0587
2019-05-18T02:35:56.293Z,93.4127
2019-05-18T02:36:59.345Z,93.2509
2019-05-18T02:38:02.288Z,93.1685
2019-05-18T02:39:05.332Z,92.9091
2019-05-18T02:40:08.286Z,92.7535
2019-05-18T02:41:11.278Z,92.6070
2019-05-18T02:42:14.345Z,92.2896
2019-05-18T02:43:17.320Z,92.0928
2019-05-18T02:44:20.321Z,91.9005
2019-05-18T02:45:25.281Z,91.8608
2019-05-18T02:46:28.324Z,91.9524
2019-05-18T02:47:31.310Z,92.0745
2019-05-18T02:48:48.512Z,92.0668
2019-05-18T02:49:42.297Z,91.8639
2019-05-18T02:50:45.293Z,91.9966
2019-05-18T02:51:48.303Z,92.4376
2019-05-18T02:52:51.317Z,92.2408
2019-05-18T02:53:54.318Z,92.2713
2019-05-18T02:54:57.259Z,92.1706
2019-05-18T02:56:00.310Z,92.8389
2019-05-18T02:57:03.308Z,93.4722
2019-05-18T02:58:06.302Z,93.5866
2019-05-18T02:59:09.289Z,93.9467
2019-05-18T03:00:12.310Z,94.0063
2019-05-18T03:01:14.281Z,94.2092
2019-05-18T03:02:17.327Z,94.5876
2019-05-18T03:03:20.317Z,94.7540
2019-05-18T03:04:23.282Z,94.8226
2019-05-18T03:05:27.295Z,95.0729
2019-05-18T03:06:30.321Z,94.6166
2019-05-18T03:07:33.364Z,94.4701
2019-05-18T03:08:35.322Z,94.8226
2019-05-18T03:09:38.291Z,95.1461
2019-05-18T03:10:41.313Z,95.2209
2019-05-18T03:11:44.322Z,95.2056
2019-05-18T03:12:47.312Z,95.0729
2019-05-18T03:13:50.275Z,95.1736
2019-05-18T03:14:53.284Z,95.2880
2019-05-18T03:15:56.297Z,95.6512
2019-05-18T03:16:59.341Z,95.7916
2019-05-18T03:18:02.299Z,95.9426
2019-05-18T03:19:08.741Z,96.0113
2019-05-18T03:20:12.310Z,95.9380
2019-05-18T03:21:15.309Z,95.9213
2019-05-18T03:22:18.347Z,95.9579
2019-05-18T03:23:21.350Z,96.1044
2019-05-18T03:24:26.333Z,96.0952
2019-05-18T03:25:29.298Z,96.2127
2019-05-18T03:26:32.320Z,96.2493
2019-05-18T03:27:35.337Z,96.1807
2019-05-18T03:28:38.362Z,96.1166
2019-05-18T03:29:41.282Z,96.1624
2019-05-18T03:30:44.324Z,96.2356
2019-05-18T03:31:47.343Z,96.2997
2019-05-18T03:32:50.300Z,96.5484
2019-05-18T03:33:53.268Z,96.6064
2019-05-18T03:34:58.339Z,96.6476
2019-05-18T03:36:01.353Z,96.6766
2019-05-18T03:37:04.296Z,96.6537
2019-05-18T03:38:07.313Z,96.6430
2019-05-18T03:39:10.304Z,96.7483
2019-05-18T03:40:13.318Z,96.9085
2019-05-18T03:41:16.297Z,97.0703
2019-05-18T03:42:19.345Z,97.0916
2019-05-18T03:43:22.311Z,97.2335
2019-05-18T03:44:25.293Z,97.2885
2019-05-18T03:45:28.301Z,97.2992
2019-05-18T03:46:31.284Z,97.3388
2019-05-18T03:47:34.335Z,97.3312
2019-05-18T03:48:37.317Z,97.3632
2019-05-18T03:49:40.318Z,97.3907
2019-05-18T03:50:43.303Z,97.4029
2019-05-18T03:51:46.278Z,97.3251
2019-05-18T03:52:49.308Z,97.1557
2019-05-18T03:53:52.317Z,97.1664
2019-05-18T03:54:55.279Z,97.0550
2019-05-18T03:55:58.325Z,97.0001
2019-05-18T03:57:01.279Z,96.8490
2019-05-18T03:58:04.355Z,96.8826
2019-05-18T03:59:07.277Z,96.9497
2019-05-18T04:00:10.321Z,96.9696
2019-05-18T04:01:13.292Z,96.9375
2019-05-18T04:02:16.267Z,96.9558
2019-05-18T04:03:19.340Z,96.9787
2019-05-18T04:04:22.262Z,96.8917
2019-05-18T04:05:25.321Z,96.8185
2019-05-18T04:06:27.298Z,96.7590
2019-05-18T04:07:30.270Z,96.8505
2019-05-18T04:08:33.344Z,96.8872
2019-05-18T04:09:36.281Z,96.9497
2019-05-18T04:10:39.325Z,96.9650
2019-05-18T04:11:42.325Z,97.0047
2019-05-18T04:12:45.307Z,96.9238
2019-05-18T04:13:48.312Z,96.9177
2019-05-18T04:14:51.297Z,96.9650
2019-05-18T04:15:54.290Z,97.0642
2019-05-18T04:16:57.257Z,97.1145
2019-05-18T04:18:00.303Z,97.0336
2019-05-18T04:19:03.320Z,97.0413
2019-05-18T04:20:06.318Z,97.0367
2019-05-18T04:21:09.272Z,97.0749
2019-05-18T04:22:12.313Z,97.0840
2019-05-18T04:23:14.309Z,97.1206
2019-05-18T04:24:17.301Z,97.2259
2019-05-18T04:25:20.280Z,97.3495
2019-05-18T04:26:23.264Z,97.3800
2019-05-18T04:27:25.377Z,97.4685
2019-05-18T04:28:28.310Z,97.5219
2019-05-18T04:29:30.318Z,97.4029
2019-05-18T04:30:33.286Z,97.3526
2019-05-18T04:31:36.312Z,96.7956
2019-05-18T04:32:39.286Z,96.4660
2019-05-18T04:33:42.349Z,96.4782
2019-05-18T04:34:45.299Z,96.6491
2019-05-18T04:35:49.377Z,96.7819
2019-05-18T04:36:52.333Z,96.9406
2019-05-18T04:37:55.287Z,96.9375
2019-05-18T04:38:58.359Z,97.0367
2019-05-18T04:40:01.301Z,96.8536
2019-05-18T04:41:04.324Z,96.5835
2019-05-18T04:42:07.300Z,96.3729
2019-05-18T04:43:10.303Z,96.3912
2019-05-18T04:44:13.294Z,96.6018
2019-05-18T04:45:15.326Z,96.8643
2019-05-18T04:46:17.466Z,96.9268
2019-05-18T04:47:20.286Z,97.0108
2019-05-18T04:48:23.338Z,96.7224
2019-05-18T04:49:26.285Z,96.5484
2019-05-18T04:50:28.272Z,96.5606
2019-05-18T04:51:31.288Z,96.1593
2019-05-18T04:52:34.291Z,95.3750
2019-05-18T04:53:37.315Z,95.1141
2019-05-18T04:54:40.281Z,94.8760
2019-05-18T04:55:43.322Z,94.7890
2019-05-18T04:56:46.290Z,94.4427
2019-05-18T04:57:49.320Z,94.3221
2019-05-18T04:58:52.339Z,94.1222
2019-05-18T04:59:55.294Z,94.3496
2019-05-18T05:00:58.308Z,95.3491
2019-05-18T05:02:01.335Z,95.7015
2019-05-18T05:03:04.286Z,95.7870
2019-05-18T05:04:07.301Z,95.9426
2019-05-18T05:05:10.332Z,96.0220
2019-05-18T05:06:13.281Z,96.1456
2019-05-18T05:07:16.315Z,96.2554
2019-05-18T05:08:19.280Z,96.0342
2019-05-18T05:09:22.363Z,95.8968
2019-05-18T05:10:25.284Z,95.7687
2019-05-18T05:11:28.278Z,95.9533
2019-05-18T05:12:31.283Z,96.0632
2019-05-18T05:13:34.288Z,96.2173
2019-05-18T05:14:36.315Z,96.1715
2019-05-18T05:15:39.278Z,96.2142
2019-05-18T05:16:42.313Z,96.2310
2019-05-18T05:17:45.275Z,95.8877
2019-05-18T05:18:48.342Z,95.6497
2019-05-18T05:19:51.281Z,95.9243
2019-05-18T05:20:54.308Z,96.2325
2019-05-18T05:21:57.294Z,96.4248
2019-05-18T05:23:00.294Z,96.4874
2019-05-18T05:24:03.355Z,96.3561
2019-05-18T05:25:06.298Z,96.0754
2019-05-18T05:26:09.310Z,96.6476
2019-05-18T05:27:12.293Z,97.0596
2019-05-18T05:28:15.291Z,97.1710
2019-05-18T05:29:18.319Z,97.1466
2019-05-18T05:30:21.308Z,97.0657
2019-05-18T05:31:24.290Z,96.7208
2019-05-18T05:32:27.275Z,96.4477
2019-05-18T05:33:30.302Z,96.0800
2019-05-18T05:34:33.300Z,95.4177
2019-05-18T05:35:37.861Z,95.0683
2019-05-18T05:36:41.262Z,95.2285
2019-05-18T05:37:44.346Z,95.3262
2019-05-18T05:38:47.312Z,95.3613
2019-05-18T05:39:50.323Z,95.1827
2019-05-18T05:40:53.295Z,95.1095
2019-05-18T05:41:56.291Z,94.9554
2019-05-18T05:42:59.306Z,94.7677
2019-05-18T05:44:02.312Z,94.7799
2019-05-18T05:45:05.288Z,95.0042
2019-05-18T05:46:08.271Z,94.7036
2019-05-18T05:47:11.316Z,94.5144
2019-05-18T05:48:14.276Z,94.1482
2019-05-18T05:49:17.335Z,93.7774
2019-05-18T05:50:34.467Z,93.7469
2019-05-18T05:51:28.313Z,94.6899
2019-05-18T05:52:31.318Z,95.1507
2019-05-18T05:53:34.278Z,95.5093
2019-05-18T05:54:37.343Z,95.6146
2019-05-18T05:55:40.291Z,95.3857
2019-05-18T05:56:43.302Z,95.0088
2019-05-18T05:57:46.260Z,94.8394
2019-05-18T05:58:49.293Z,94.3313
2019-05-18T05:59:52.333Z,93.8872
2019-05-18T06:00:55.279Z,93.7240
2019-05-18T06:01:58.318Z,93.5683
2019-05-18T06:03:01.324Z,93.3852
2019-05-18T06:04:04.324Z,93.3761
2019-05-18T06:05:07.330Z,92.8252
2019-05-18T06:06:10.327Z,93.0144
2019-05-18T06:07:13.279Z,91.9417
2019-05-18T06:08:16.325Z,91.5541
2019-05-18T06:09:19.293Z,90.7988
2019-05-18T06:10:22.320Z,90.4005
2019-05-18T06:11:25.302Z,91.1513
2019-05-18T06:12:28.283Z,88.7617
2019-05-18T06:13:31.322Z,87.8538
2019-05-18T06:14:34.272Z,88.6152
2019-05-18T06:15:37.341Z,88.7983
2019-05-18T06:16:40.331Z,87.0817
2019-05-18T06:17:43.352Z,86.5370
2019-05-18T06:18:46.297Z,87.8279
2019-05-18T06:19:49.282Z,87.8187
2019-05-18T06:20:52.379Z,86.3844
2019-05-18T06:21:54.300Z,87.2785
2019-05-18T06:22:57.317Z,86.0060
2019-05-18T06:24:00.280Z,84.8707
2019-05-18T06:25:04.987Z,85.8351
2019-05-18T06:26:08.317Z,87.0176
2019-05-18T06:27:11.327Z,86.7246
2019-05-18T06:28:14.267Z,85.1041
2019-05-18T06:29:17.284Z,85.2277
2019-05-18T06:30:20.361Z,85.4841
2019-05-18T06:31:23.381Z,84.1657
2019-05-18T06:32:26.307Z,84.8936
2019-05-18T06:33:29.268Z,85.0889
2019-05-18T06:34:32.331Z,84.9119
2019-05-18T06:35:35.312Z,85.7847
2019-05-18T06:36:38.302Z,85.8442
2019-05-18T06:37:41.292Z,86.1555
2019-05-18T06:38:44.273Z,86.1982
2019-05-18T06:39:47.339Z,86.0197
2019-05-18T06:40:50.320Z,85.7450
2019-05-18T06:41:53.309Z,85.7450
2019-05-18T06:42:56.292Z,85.6611
2019-05-18T06:43:59.308Z,85.7343
2019-05-18T06:45:02.294Z,85.7160
2019-05-18T06:46:05.341Z,86.0563
2019-05-18T06:47:08.335Z,85.9312
2019-05-18T06:48:11.286Z,85.5146
2019-05-18T06:49:14.305Z,85.5650
2019-05-18T06:50:17.284Z,85.7160
2019-05-18T06:51:20.334Z,85.5711
2019-05-18T06:52:23.317Z,85.6016
2019-05-18T06:53:26.298Z,85.5711
2019-05-18T06:54:29.285Z,85.3910
2019-05-18T06:55:32.330Z,84.9851
2019-05-18T06:56:35.326Z,85.6443
2019-05-18T06:57:38.293Z,85.2766
2019-05-18T06:58:41.357Z,85.4276
2019-05-18T06:59:44.293Z,84.8798
2019-05-18T07:00:46.359Z,84.7746
2019-05-18T07:01:49.362Z,84.5777
2019-05-18T07:02:52.346Z,84.0772
2019-05-18T07:03:55.287Z,84.4389
2019-05-18T07:04:58.314Z,84.1001
2019-05-18T07:06:01.338Z,84.4175
2019-05-18T07:07:04.302Z,84.7196
2019-05-18T07:08:06.305Z,84.7044
2019-05-18T07:09:13.730Z,83.6301
2019-05-18T07:10:16.320Z,83.6164
2019-05-18T07:11:19.350Z,83.2593
2019-05-18T07:12:22.317Z,84.1413
2019-05-18T07:13:25.346Z,84.4892
2019-05-18T07:14:28.334Z,84.7410
2019-05-18T07:15:31.291Z,85.3407
2019-05-18T07:16:34.323Z,85.4658
2019-05-18T07:17:37.311Z,85.3376
2019-05-18T07:18:40.283Z,84.7044
2019-05-18T07:19:43.294Z,84.8569
2019-05-18T07:20:46.336Z,84.9332
2019-05-18T07:21:49.303Z,84.7593
2019-05-18T07:22:52.313Z,84.5365
2019-05-18T07:23:55.310Z,83.9139
2019-05-18T07:24:58.295Z,84.5075
2019-05-18T07:26:01.330Z,84.6601
2019-05-18T07:27:04.301Z,83.4318
2019-05-18T07:28:06.285Z,84.0406
2019-05-18T07:29:09.323Z,84.2573
2019-05-18T07:30:12.306Z,84.3015
2019-05-18T07:31:15.361Z,83.8666
2019-05-18T07:32:18.314Z,82.9297
2019-05-18T07:33:21.312Z,82.0050
2019-05-18T07:34:26.515Z,81.7716
2019-05-18T07:35:30.314Z,81.7533
2019-05-18T07:36:33.297Z,81.0254
2019-05-18T07:37:36.325Z,80.9735
2019-05-18T07:38:39.390Z,81.5137
2019-05-18T07:39:42.328Z,81.9959
2019-05-18T07:40:45.261Z,81.4374
2019-05-18T07:41:48.357Z,81.4725
2019-05-18T07:42:51.315Z,80.8545
2019-05-18T07:43:54.298Z,81.6480
2019-05-18T07:44:57.301Z,80.9094
2019-05-18T07:46:00.327Z,79.9573
2019-05-18T07:47:03.348Z,79.8352
2019-05-18T07:48:06.289Z,80.4883
2019-05-18T07:49:09.289Z,80.9247
2019-05-18T07:50:12.322Z,80.4990
2019-05-18T07:51:15.328Z,80.8011
2019-05-18T07:52:18.382Z,79.4232
2019-05-18T07:53:21.311Z,80.3372
2019-05-18T07:54:24.283Z,79.5605
2019-05-18T07:55:27.353Z,79.0829
2019-05-18T07:56:30.322Z,79.4125
2019-05-18T07:57:33.313Z,79.3896
2019-05-18T07:58:36.270Z,80.1450
2019-05-18T07:59:39.295Z,78.6160
2019-05-18T08:00:42.301Z,78.7274
2019-05-18T08:01:45.344Z,78.6954
2019-05-18T08:02:48.319Z,79.1669
2019-05-18T08:03:51.306Z,79.1516
2019-05-18T08:04:54.285Z,79.8978
2019-05-18T08:05:57.369Z,79.8444
2019-05-18T08:07:00.287Z,80.0717
2019-05-18T08:08:03.323Z,80.2060
2019-05-18T08:09:06.321Z,80.8454
2019-05-18T08:10:09.329Z,80.7950
2019-05-18T08:11:12.342Z,80.3937
2019-05-18T08:12:15.309Z,80.4395
2019-05-18T08:13:18.386Z,79.3393
2019-05-18T08:14:21.288Z,80.5707
2019-05-18T08:15:24.329Z,79.8382
2019-05-18T08:16:27.325Z,80.5341
2019-05-18T08:17:30.320Z,80.7538
2019-05-18T08:18:33.361Z,80.4379
2019-05-18T08:19:36.316Z,80.3891
2019-05-18T08:20:39.324Z,78.7182
2019-05-18T08:21:52.747Z,79.5651
2019-05-18T08:22:50.336Z,79.5956
2019-05-18T08:23:53.299Z,79.8978
2019-05-18T08:24:56.332Z,78.0896
2019-05-18T08:25:59.322Z,78.8266
2019-05-18T08:27:02.612Z,78.2544
2019-05-18T08:28:05.358Z,78.6160
2019-05-18T08:29:08.311Z,78.8876
2019-05-18T08:30:11.297Z,79.4125
2019-05-18T08:31:14.325Z,78.3658
2019-05-18T08:32:17.329Z,78.7457
2019-05-18T08:33:20.344Z,78.8815
2019-05-18T08:34:23.304Z,79.3637
2019-05-18T08:35:27.286Z,77.8347
2019-05-18T08:36:30.299Z,77.0703
2019-05-18T08:37:33.368Z,77.2335
2019-05-18T08:38:36.361Z,77.9995
2019-05-18T08:39:39.322Z,78.0316
2019-05-18T08:40:42.289Z,78.0865
2019-05-18T08:41:48.620Z,77.7417
2019-05-18T08:42:52.288Z,78.3230
2019-05-18T08:43:55.364Z,76.8719
2019-05-18T08:44:58.286Z,77.3999
2019-05-18T08:46:01.324Z,78.4375
2019-05-18T08:47:04.308Z,77.3358
2019-05-18T08:48:07.434Z,78.0621
2019-05-18T08:49:10.291Z,77.8057
2019-05-18T08:50:13.319Z,78.3383
2019-05-18T08:51:16.330Z,77.5814
2019-05-18T08:52:19.353Z,77.4350
2019-05-18T08:53:22.363Z,77.6608
2019-05-18T08:54:25.307Z,77.9934
2019-05-18T08:55:28.279Z,79.0112
2019-05-18T08:56:31.343Z,78.2223
2019-05-18T08:57:34.347Z,77.5326
2019-05-18T08:58:37.364Z,76.7758
2019-05-18T08:59:40.329Z,76.9589
2019-05-18T09:00:43.307Z,77.6867
2019-05-18T09:01:46.330Z,75.9152
2019-05-18T09:02:48.313Z,76.0540
2019-05-18T09:03:50.432Z,78.0392
2019-05-18T09:04:53.317Z,77.8576
2019-05-18T09:05:56.311Z,78.8785
2019-05-18T09:06:59.337Z,77.6684
2019-05-18T09:08:02.363Z,78.1231
2019-05-18T09:09:05.317Z,78.5672
2019-05-18T09:10:08.283Z,79.3317
2019-05-18T09:11:11.366Z,78.7396
2019-05-18T09:12:14.334Z,78.6206
2019-05-18T09:13:16.335Z,78.0087
2019-05-18T09:14:19.379Z,77.8286
2019-05-18T09:15:24.349Z,77.5280
2019-05-18T09:16:27.338Z,77.1145
2019-05-18T09:17:30.326Z,76.8551
2019-05-18T09:18:33.322Z,76.6064
2019-05-18T09:19:36.371Z,76.6674
2019-05-18T09:20:39.295Z,76.5988
2019-05-18T09:21:42.330Z,76.7590
2019-05-18T09:22:45.299Z,76.6659
2019-05-18T09:23:50.327Z,75.5444
2019-05-18T09:24:53.395Z,74.3664
2019-05-18T09:25:56.320Z,75.9426
2019-05-18T09:26:59.295Z,75.4299
2019-05-18T09:28:02.309Z,76.0708
2019-05-18T09:29:05.392Z,75.7153
2019-05-18T09:30:08.781Z,75.4589
2019-05-18T09:31:12.343Z,74.7509
2019-05-18T09:32:15.311Z,73.4340
2019-05-18T09:33:18.340Z,73.0953
2019-05-18T09:34:21.352Z,73.9284
2019-05-18T09:35:24.316Z,74.0642
2019-05-18T09:36:26.326Z,73.4737
2019-05-18T09:37:29.341Z,74.0429
2019-05-18T09:38:33.326Z,74.9569
2019-05-18T09:39:35.335Z,73.5302
2019-05-18T09:40:38.339Z,74.4594
2019-05-18T09:41:41.327Z,75.3216
2019-05-18T09:42:44.356Z,74.7021
2019-05-18T09:43:46.344Z,73.5531
2019-05-18T09:44:49.337Z,73.3913
2019-05-18T09:45:52.332Z,73.8232
2019-05-18T09:46:55.313Z,73.5073
2019-05-18T09:47:58.311Z,72.7825
2019-05-18T09:49:01.305Z,72.8847
2019-05-18T09:50:04.364Z,73.3425
2019-05-18T09:51:07.275Z,73.0846
2019-05-18T09:52:10.291Z,73.6797
2019-05-18T09:53:13.307Z,73.1548
2019-05-18T09:54:16.320Z,72.5231
2019-05-18T09:55:19.349Z,73.3242
2019-05-18T09:56:22.321Z,73.5012
2019-05-18T09:57:25.332Z,72.4269
2019-05-18T09:58:28.312Z,72.7428
2019-05-18T09:59:30.335Z,72.7016
2019-05-18T10:00:38.378Z,72.4865
2019-05-18T10:01:41.292Z,72.9473
2019-05-18T10:02:44.388Z,73.2509
2019-05-18T10:03:47.313Z,72.9305
2019-05-18T10:04:50.319Z,72.5536
2019-05-18T10:05:53.346Z,72.8237
2019-05-18T10:06:56.322Z,72.7642
2019-05-18T10:07:59.320Z,73.7682
2019-05-18T10:09:02.374Z,73.7682
2019-05-18T10:10:05.307Z,72.4315
2019-05-18T10:11:08.368Z,71.7433
2019-05-18T10:12:11.346Z,71.8898
2019-05-18T10:13:14.302Z,72.0195
2019-05-18T10:14:17.352Z,72.4819
2019-05-18T10:15:20.316Z,71.8898
2019-05-18T10:16:24.429Z,73.7163
2019-05-18T10:17:27.316Z,72.8374
2019-05-18T10:18:30.322Z,72.1782
2019-05-18T10:19:33.285Z,72.4941
2019-05-18T10:20:36.311Z,72.8420
2019-05-18T10:21:39.340Z,72.1599
2019-05-18T10:22:53.815Z,71.1528
2019-05-18T10:23:50.346Z,72.1233
2019-05-18T10:24:53.291Z,71.4046
2019-05-18T10:25:56.364Z,72.5124
2019-05-18T10:26:59.351Z,72.5353
2019-05-18T10:28:02.333Z,72.8923
2019-05-18T10:29:05.294Z,71.7266
2019-05-18T10:30:08.334Z,71.7983
2019-05-18T10:31:11.314Z,70.1473
2019-05-18T10:32:14.298Z,70.2846
2019-05-18T10:33:17.337Z,70.3899
2019-05-18T10:34:20.332Z,69.8863
2019-05-18T10:35:23.375Z,69.9504
2019-05-18T10:36:26.347Z,70.0496
2019-05-18T10:37:29.327Z,70.2754
2019-05-18T10:38:32.306Z,69.9413
2019-05-18T10:39:38.446Z,71.0857
2019-05-18T10:40:41.371Z,72.2789
2019-05-18T10:41:44.322Z,72.9290
2019-05-18T10:42:47.299Z,73.4936
2019-05-18T10:43:50.319Z,72.1920
2019-05-18T10:44:53.353Z,71.7662
2019-05-18T10:45:56.337Z,72.5994
2019-05-18T10:46:59.293Z,72.5917
2019-05-18T10:48:02.382Z,73.1167
2019-05-18T10:49:05.320Z,72.3949
2019-05-18T10:50:08.330Z,71.6747
2019-05-18T10:51:11.363Z,71.3863
2019-05-18T10:52:14.326Z,71.1894
2019-05-18T10:53:28.357Z,71.5114
2019-05-18T10:54:25.328Z,70.1976
2019-05-18T10:55:28.316Z,70.8141
2019-05-18T10:56:31.438Z,71.7495
2019-05-18T10:57:34.298Z,70.5577
2019-05-18T10:58:37.330Z,71.4427
2019-05-18T10:59:40.344Z,71.6289
2019-05-18T11:00:43.314Z,71.8120
2019-05-18T11:01:46.354Z,71.4748
2019-05-18T11:02:49.321Z,71.1665
2019-05-18T11:03:52.352Z,70.9255
2019-05-18T11:04:55.301Z,70.8690
2019-05-18T11:05:58.280Z,69.6056
2019-05-18T11:07:01.346Z,70.6905
2019-05-18T11:08:04.321Z,71.2184
2019-05-18T11:09:07.327Z,70.3166
2019-05-18T11:10:10.307Z,69.5796
2019-05-18T11:11:13.354Z,70.4448
2019-05-18T11:12:16.333Z,70.8385
2019-05-18T11:13:19.322Z,70.7607
2019-05-18T11:14:22.313Z,69.8985
2019-05-18T11:15:25.330Z,69.5827
2019-05-18T11:16:28.305Z,69.7063
2019-05-18T11:17:31.344Z,69.2912
2019-05-18T11:18:34.296Z,69.1035
2019-05-18T11:19:37.352Z,68.7739
2019-05-18T11:20:40.311Z,69.2439
2019-05-18T11:21:43.331Z,69.0944
2019-05-18T11:22:46.361Z,68.9189
2019-05-18T11:23:49.298Z,68.4749
2019-05-18T11:24:52.327Z,69.8909
2019-05-18T11:25:55.330Z,69.4514
2019-05-18T11:26:58.391Z,68.5725
2019-05-18T11:28:01.344Z,69.1310
2019-05-18T11:29:04.338Z,69.2851
2019-05-18T11:30:07.371Z,68.8701
2019-05-18T11:31:10.298Z,68.5359
2019-05-18T11:32:13.370Z,68.4352
2019-05-18T11:33:16.298Z,69.0288
2019-05-18T11:34:19.330Z,69.0761
2019-05-18T11:35:22.300Z,69.2485
2019-05-18T11:36:25.332Z,68.4108
2019-05-18T11:37:27.348Z,68.5252
2019-05-18T11:38:30.324Z,68.4108
2019-05-18T11:39:33.326Z,69.1157
2019-05-18T11:40:36.318Z,67.9408
2019-05-18T11:41:39.328Z,68.1132
2019-05-18T11:42:41.323Z,68.8548
2019-05-18T11:43:44.318Z,68.2704
2019-05-18T11:44:47.330Z,67.9713
2019-05-18T11:45:50.302Z,68.5756
2019-05-18T11:46:53.314Z,69.1722
2019-05-18T11:47:56.361Z,69.2073
2019-05-18T11:48:59.272Z,68.9921
2019-05-18T11:50:02.329Z,68.1743
2019-05-18T11:51:05.356Z,68.6946
2019-05-18T11:52:08.310Z,68.7327
2019-05-18T11:53:11.359Z,68.9799
2019-05-18T11:54:14.284Z,67.8706
2019-05-18T11:55:17.300Z,65.8427
2019-05-18T11:56:20.304Z,66.8467
2019-05-18T11:57:23.316Z,67.0436
2019-05-18T11:58:26.323Z,67.0390
2019-05-18T11:59:29.349Z,66.8788
2019-05-18T12:00:32.299Z,67.1763
2019-05-18T12:01:34.328Z,66.9596
2019-05-18T12:02:37.320Z,67.6066
2019-05-18T12:03:40.318Z,67.1809
2019-05-18T12:04:44.327Z,67.4037
2019-05-18T12:05:47.318Z,67.5242
2019-05-18T12:06:50.324Z,66.6117
2019-05-18T12:07:53.307Z,66.7552
2019-05-18T12:08:58.599Z,66.8467
2019-05-18T12:10:02.358Z,66.7079
2019-05-18T12:11:04.336Z,66.6301
2019-05-18T12:12:07.337Z,66.1677
2019-05-18T12:13:10.285Z,65.9205
2019-05-18T12:14:13.376Z,66.3066
2019-05-18T12:15:16.306Z,65.8946
2019-05-18T12:16:19.331Z,66.3935
2019-05-18T12:17:22.265Z,66.2196
2019-05-18T12:18:25.278Z,66.5537
2019-05-18T12:19:28.376Z,66.1357
2019-05-18T12:20:32.314Z,66.8269
2019-05-18T12:21:35.326Z,66.6362
2019-05-18T12:22:38.297Z,66.4622
2019-05-18T12:23:41.338Z,66.5202
2019-05-18T12:24:44.311Z,67.2618
2019-05-18T12:25:50.280Z,67.5288
2019-05-18T12:26:54.347Z,66.7918
2019-05-18T12:27:57.369Z,66.8498
2019-05-18T12:29:00.315Z,65.9709
2019-05-18T12:30:03.389Z,63.5172
2019-05-18T12:31:05.352Z,64.5075
2019-05-18T12:32:08.270Z,64.2222
2019-05-18T12:33:11.339Z,65.4490
2019-05-18T12:34:14.299Z,64.6845
2019-05-18T12:35:17.392Z,64.1093
2019-05-18T12:36:20.299Z,63.8193
2019-05-18T12:37:23.347Z,63.0091
2019-05-18T12:38:26.302Z,63.9292
2019-05-18T12:39:29.313Z,63.8834
2019-05-18T12:40:32.372Z,63.5721
2019-05-18T12:41:35.296Z,63.5035
2019-05-18T12:42:38.320Z,62.7222